This is the latest recevied weather packets stored in our database for station/object W2GUX. If no packets are shown the sender has not sent any weather packets the latest 1 day(s).
| Time | Temp. | Humidity | Pressure | Rain* | Wind** | Luminosity | Snow |
|---|---|---|---|---|---|---|---|
| 1778101504 | 17.78° C | 87% | 1003 hPa | 0 mm | - | - | - |
| 1778100004 | 17.78° C | 87% | 1003 hPa | 0 mm | - | - | - |
| 1778096703 | 17.22° C | 87% | 1003.5 hPa | 0.25 mm | - | - | - |
| 1778094904 | 17.78° C | 85% | 1003.8 hPa | 0.25 mm | - | - | - |
| 1778093703 | 18.33° C | 81% | 1003.9 hPa | 0 mm | - | - | - |
| 1778093404 | 18.33° C | 80% | 1003.9 hPa | 0 mm | - | - | - |
| 1778091004 | 18.89° C | 80% | 1004.1 hPa | 0.25 mm | - | - | - |
| 1778088304 | 18.33° C | 82% | 1004.2 hPa | 0.25 mm | - | - | - |
| 1778086804 | 18.89° C | 80% | 1004.5 hPa | 0.51 mm | - | - | - |
| 1778084104 | 20° C | 70% | 1005.5 hPa | 0 mm | - | - | - |
| 1778082604 | 20.56° C | 66% | 1005.5 hPa | 0 mm | - | - | - |
| 1778081104 | 21.11° C | 61% | 1005.5 hPa | 0 mm | - | - | - |
| 1778076904 | 21.11° C | 60% | 1005.6 hPa | 0 mm | - | - | - |
| 1778076604 | 21.11° C | 60% | 1005.6 hPa | 0 mm | - | - | - |
| 1778075404 | 20.56° C | 62% | 1005.8 hPa | 0 mm | - | - | - |
| 1778071204 | 19.44° C | 64% | 1005.5 hPa | 0 mm | - | - | - |
| 1778070904 | 19.44° C | 65% | 1005.5 hPa | 0 mm | - | - | - |
| 1778069404 | 20° C | 64% | 1005.8 hPa | 0 mm | - | - | - |
| 1778067904 | 20° C | 66% | 1006.1 hPa | 0 mm | - | - | - |
| 1778067604 | 19.44° C | 65% | 1006 hPa | 0 mm | - | - | - |
| 1778066704 | 19.44° C | 67% | 1006.1 hPa | 0 mm | - | - | - |
| 1778064304 | 18.89° C | 70% | 1006 hPa | 0 mm | - | - | - |
| 1778064004 | 18.33° C | 70% | 1006 hPa | 0 mm | - | - | - |
| 1778063704 | 18.33° C | 71% | 1005.9 hPa | 0 mm | - | - | - |
| 1778062504 | 17.78° C | 72% | 1005.9 hPa | 0 mm | - | - | - |
* Rain latest hour (hover to see other rain measurements)
** Current wind speed in m/s (hover to see current wind gust speed)